Portada
METAR-TAF:

METAR-TAF

Aeroports :

Humberside, Anglaterra

latitud: 53-35N, longitud: 000-21W, altitud: 31 m

Observació

L'informe es va fer fa 23 minuts, a les 09:50 UTC
Vent 18 kt del Sud-Oest
Temperatura 19°C
Humitat 73%
Pressió 1020 hPa
Visibilitat 10 km o més
Escasses núvols a una alçada de 2000 ft
Cel ennuvolat a una alçada de 2500 ft

METAR: EGNJ 220950Z 22018KT 9999 FEW020 BKN025 19/14 Q1020

Hora: 11:13 (10:13 UTC)

Pronòstic

L'informe es va fer fa 2 hores i 15 minuts, a les 07:58 UTC
Pronòstic vàlid del 22 a les 09 UTC al 22 a les 18 UTC
Vent 13 kt del Sud/Sud-Oest
Visibilitat 10 km o més
Núvols disperses a una alçada de 4000 ft
Probabilitat 30% :
Temporalment
l' 22 a les 13 UTC al 22 a les 18 UTC
Vent 16 kt del Sud/Sud-Oest amb ràfegues de 26 kt

TAF: EGNJ 220758Z 2209/2218 20013KT 9999 SCT040 PROB30 TEMPO 2213/2218 21016G26KT

Observacions i pronòstics meteorològics de més de 4000 aeroports (METAR i TAF).

Les estacions disponibles són els punts grocs i vermells al mapa.

Posi el ratolí al punt desitjat per veure el nom de l'estació.

Feu clic per veure les observacions i els pronòstics meteorològics.

Per canviar el mapa: feu clic els botons verds amb una creu de color negre per apropar; al botó verd amb un guió per allunyar la imatge; o en les fletxes verdes per a mapes adjacents.


METAR-TAF: